createdAt,value
2023-05-20T00:00:49.086Z,4.78
2023-05-20T00:03:16.951Z,5.05
2023-05-20T00:05:44.013Z,7.32
2023-05-20T00:08:11.165Z,6.13
2023-05-20T00:10:38.338Z,5.47
2023-05-20T00:13:06.539Z,5.03
2023-05-20T00:15:34.570Z,8.65
2023-05-20T00:18:01.960Z,6.20
2023-05-20T00:20:28.868Z,9.43
2023-05-20T00:22:55.775Z,8.18
2023-05-20T00:25:22.481Z,6.13
2023-05-20T00:27:49.310Z,5.40
2023-05-20T00:30:16.185Z,8.38
2023-05-20T00:32:43.013Z,4.32
2023-05-20T00:35:11.482Z,5.90
2023-05-20T00:37:38.263Z,7.40
2023-05-20T00:40:05.734Z,5.38
2023-05-20T00:42:32.665Z,5.60
2023-05-20T00:45:00.001Z,4.90
2023-05-20T00:47:29.960Z,8.23
2023-05-20T00:49:57.213Z,5.53
2023-05-20T00:52:24.192Z,5.28
2023-05-20T00:54:51.737Z,5.28
2023-05-20T00:57:19.801Z,10.05
2023-05-20T00:59:46.592Z,4.72
2023-05-20T01:02:13.509Z,6.63
2023-05-20T01:04:41.788Z,5.95
2023-05-20T01:07:08.574Z,4.70
2023-05-20T01:09:35.931Z,5.85
2023-05-20T01:12:09.804Z,5.22
2023-05-20T01:14:40.661Z,5.80
2023-05-20T01:17:11.154Z,6.50
2023-05-20T01:19:45.556Z,5.10
2023-05-20T01:22:14.567Z,9.15
2023-05-20T01:24:44.606Z,6.13
2023-05-20T01:27:13.410Z,7.38
2023-05-20T01:29:42.263Z,6.93
2023-05-20T01:32:16.206Z,6.43
2023-05-20T01:34:43.841Z,6.55
2023-05-20T01:37:10.939Z,6.97
2023-05-20T01:39:41.594Z,8.60
2023-05-20T01:42:10.558Z,9.23
2023-05-20T01:44:37.497Z,7.18
2023-05-20T01:47:04.637Z,5.07
2023-05-20T01:49:31.838Z,6.43
2023-05-20T01:51:58.986Z,9.88
2023-05-20T01:54:25.852Z,6.20
2023-05-20T01:56:53.352Z,7.03
2023-05-20T01:59:22.150Z,5.43
2023-05-20T02:01:50.715Z,6.32
2023-05-20T02:04:19.129Z,12.75
2023-05-20T02:06:46.299Z,5.28
2023-05-20T02:09:13.023Z,8.75
2023-05-20T02:11:39.831Z,6.80
2023-05-20T02:14:06.605Z,7.38
2023-05-20T02:16:33.382Z,6.25
2023-05-20T02:19:02.140Z,7.55
2023-05-20T02:21:29.017Z,15.75
2023-05-20T02:23:55.790Z,9.02
2023-05-20T02:26:22.722Z,9.85
2023-05-20T02:28:50.834Z,6.68
2023-05-20T02:31:18.056Z,6.35
2023-05-20T02:33:45.301Z,7.75
2023-05-20T02:36:12.582Z,10.35
2023-05-20T02:38:39.501Z,11.32
2023-05-20T02:41:06.330Z,7.88
2023-05-20T02:43:33.402Z,7.05
2023-05-20T02:46:01.490Z,9.40
2023-05-20T02:48:28.370Z,7.88
2023-05-20T02:50:55.336Z,7.22
2023-05-20T02:53:22.249Z,7.15
2023-05-20T02:55:49.105Z,5.90
2023-05-20T02:58:16.020Z,8.38
2023-05-20T03:00:43.645Z,7.97
2023-05-20T03:03:10.651Z,6.97
2023-05-20T03:05:38.177Z,5.88
2023-05-20T03:08:12.120Z,9.75
2023-05-20T03:10:39.334Z,6.53
2023-05-20T03:13:09.429Z,10.27
2023-05-20T03:15:40.841Z,7.10
2023-05-20T03:18:08.612Z,10.43
2023-05-20T03:20:40.090Z,8.00
2023-05-20T03:23:07.440Z,8.40
2023-05-20T03:25:37.168Z,7.70
2023-05-20T03:28:04.194Z,8.13
2023-05-20T03:30:31.525Z,7.63
2023-05-20T03:32:59.080Z,5.97
2023-05-20T03:35:26.329Z,7.95
2023-05-20T03:37:53.343Z,8.60
2023-05-20T03:40:22.622Z,6.93
2023-05-20T03:42:50.958Z,12.05
2023-05-20T03:45:19.761Z,7.00
2023-05-20T03:48:00.674Z,9.32
2023-05-20T03:50:28.791Z,7.68
2023-05-20T03:52:55.564Z,7.68
2023-05-20T03:55:24.883Z,11.38
2023-05-20T03:57:52.564Z,8.90
2023-05-20T04:00:19.595Z,11.30
2023-05-20T04:02:48.045Z,13.30
2023-05-20T04:05:17.692Z,9.75
2023-05-20T04:07:44.600Z,8.95
2023-05-20T04:10:13.077Z,7.43
2023-05-20T04:12:40.198Z,10.43
2023-05-20T04:15:08.102Z,8.98
2023-05-20T04:17:48.452Z,11.88
2023-05-20T04:20:15.712Z,10.98
2023-05-20T04:22:42.636Z,7.20
2023-05-20T04:25:09.847Z,7.43
2023-05-20T04:27:39.655Z,11.32
2023-05-20T04:30:07.832Z,8.13
2023-05-20T04:32:38.860Z,12.00
2023-05-20T04:35:11.797Z,15.95
2023-05-20T04:37:42.333Z,8.50
2023-05-20T04:40:12.519Z,8.52
2023-05-20T04:42:39.687Z,11.25
2023-05-20T04:45:08.750Z,11.68
2023-05-20T04:47:38.999Z,14.52
2023-05-20T04:50:13.594Z,13.50
2023-05-20T04:52:46.144Z,10.82
2023-05-20T04:55:13.721Z,8.98
2023-05-20T04:57:41.858Z,11.52
2023-05-20T05:00:13.195Z,14.00
2023-05-20T05:02:40.819Z,10.88
2023-05-20T05:05:08.124Z,8.32
2023-05-20T05:07:34.987Z,10.82
2023-05-20T05:10:01.892Z,11.63
2023-05-20T05:12:32.830Z,13.82
2023-05-20T05:14:59.985Z,13.13
2023-05-20T05:17:28.812Z,9.27
2023-05-20T05:19:57.341Z,12.93
2023-05-20T05:22:25.349Z,10.35
2023-05-20T05:24:52.444Z,12.18
2023-05-20T05:27:19.200Z,14.95
2023-05-20T05:29:46.006Z,12.15
2023-05-20T05:32:12.895Z,12.25
2023-05-20T05:34:39.719Z,16.20
2023-05-20T05:37:06.471Z,12.30
2023-05-20T05:39:34.542Z,11.38
2023-05-20T05:42:01.350Z,12.63
2023-05-20T05:44:28.184Z,13.30
2023-05-20T05:46:55.101Z,13.80
2023-05-20T05:49:21.987Z,15.68
2023-05-20T05:51:49.929Z,15.32
2023-05-20T05:54:16.780Z,12.10
2023-05-20T05:56:43.584Z,11.13
2023-05-20T05:59:10.422Z,14.95
2023-05-20T06:01:37.492Z,12.32
2023-05-20T06:04:05.174Z,15.63
2023-05-20T06:06:33.889Z,13.85
2023-05-20T06:09:00.797Z,15.18
2023-05-20T06:11:27.558Z,13.45
2023-05-20T06:13:54.261Z,13.52
2023-05-20T06:16:21.226Z,13.68
2023-05-20T06:18:50.089Z,15.60
2023-05-20T06:21:17.109Z,18.92
2023-05-20T06:23:43.936Z,14.70
2023-05-20T06:26:12.007Z,14.57
2023-05-20T06:28:39.373Z,16.58
2023-05-20T06:31:06.405Z,14.73
2023-05-20T06:33:34.533Z,15.20
2023-05-20T06:36:06.512Z,15.68
2023-05-20T06:38:33.260Z,14.65
2023-05-20T06:41:01.161Z,16.25
2023-05-20T06:43:28.623Z,15.93
2023-05-20T06:46:04.847Z,19.73
2023-05-20T06:48:37.756Z,15.15
2023-05-20T06:51:08.117Z,15.32
2023-05-20T06:53:35.624Z,15.45
2023-05-20T06:56:03.504Z,20.23
2023-05-20T06:58:31.629Z,14.05
2023-05-20T07:00:58.395Z,12.65
2023-05-20T07:03:26.136Z,17.52
2023-05-20T07:05:52.987Z,18.20
2023-05-20T07:08:20.551Z,16.08
2023-05-20T07:10:47.342Z,18.75
2023-05-20T07:13:18.331Z,14.27
2023-05-20T07:15:48.035Z,19.50
2023-05-20T07:18:16.223Z,18.50
2023-05-20T07:20:45.644Z,14.93
2023-05-20T07:23:24.891Z,16.95
2023-05-20T07:25:54.228Z,18.08
2023-05-20T07:28:22.759Z,18.48
2023-05-20T07:30:50.575Z,15.95
2023-05-20T07:33:26.604Z,19.05
2023-05-20T07:36:03.188Z,19.40
2023-05-20T07:38:29.974Z,14.80
2023-05-20T07:41:00.819Z,17.42
2023-05-20T07:43:28.622Z,16.30
2023-05-20T07:45:56.251Z,17.33
2023-05-20T07:48:23.114Z,15.43
2023-05-20T07:50:49.849Z,20.35
2023-05-20T07:53:17.802Z,16.75
2023-05-20T07:55:44.870Z,20.75
2023-05-20T07:58:11.709Z,19.13
2023-05-20T08:00:39.969Z,16.88
2023-05-20T08:03:08.593Z,19.77
2023-05-20T08:05:49.667Z,19.00
2023-05-20T08:08:17.187Z,19.58
2023-05-20T08:10:52.882Z,22.27
2023-05-20T08:13:21.535Z,18.95
2023-05-20T08:15:48.824Z,18.33
2023-05-20T08:18:16.441Z,17.95
2023-05-20T08:20:43.232Z,17.30
2023-05-20T08:23:10.177Z,21.52
2023-05-20T08:25:38.165Z,21.65
2023-05-20T08:28:06.642Z,22.63
2023-05-20T08:30:36.311Z,18.17
2023-05-20T08:33:03.176Z,19.02
2023-05-20T08:35:30.820Z,22.65
2023-05-20T08:37:58.447Z,28.00
2023-05-20T08:40:27.338Z,22.33
2023-05-20T08:42:54.170Z,24.02
2023-05-20T08:45:26.686Z,19.08
2023-05-20T08:47:55.286Z,18.50
2023-05-20T08:50:22.207Z,20.38
2023-05-20T08:52:49.297Z,22.45
2023-05-20T08:55:26.862Z,19.02
2023-05-20T08:57:57.178Z,20.42
2023-05-20T09:00:27.509Z,16.02
2023-05-20T09:02:55.024Z,21.95
2023-05-20T09:05:22.758Z,23.13
2023-05-20T09:07:49.639Z,21.42
2023-05-20T09:10:16.595Z,23.17
2023-05-20T09:12:43.527Z,21.98
2023-05-20T09:15:11.404Z,20.88
2023-05-20T09:17:38.832Z,18.83
2023-05-20T09:20:10.896Z,21.60
2023-05-20T09:22:40.546Z,21.23
2023-05-20T09:25:08.029Z,19.95
2023-05-20T09:27:34.888Z,21.02
2023-05-20T09:30:01.597Z,23.35
2023-05-20T09:32:29.002Z,23.00
2023-05-20T09:34:56.030Z,20.20
2023-05-20T09:37:24.326Z,21.25
2023-05-20T09:39:56.589Z,17.92
2023-05-20T09:42:28.398Z,20.00
2023-05-20T09:44:56.715Z,23.90
2023-05-20T09:47:25.259Z,18.88
2023-05-20T09:49:52.754Z,22.92
2023-05-20T09:52:21.327Z,22.52
2023-05-20T09:54:49.679Z,22.00
2023-05-20T09:57:16.505Z,26.02
2023-05-20T09:59:44.216Z,22.40
2023-05-20T10:02:11.021Z,20.85
2023-05-20T10:04:42.731Z,19.35
2023-05-20T10:07:41.285Z,24.83
2023-05-20T10:10:45.017Z,28.33
2023-05-20T10:13:40.024Z,26.35
2023-05-20T10:16:24.349Z,23.30
2023-05-20T10:19:24.159Z,22.67
2023-05-20T10:21:58.447Z,24.13
2023-05-20T10:24:32.241Z,24.63
2023-05-20T10:27:00.293Z,24.95
2023-05-20T10:29:27.181Z,23.40
2023-05-20T10:31:54.130Z,22.02
2023-05-20T10:34:22.215Z,27.05
2023-05-20T10:36:54.893Z,21.67
2023-05-20T10:39:35.088Z,22.48
2023-05-20T10:42:10.621Z,21.20
2023-05-20T10:44:47.094Z,28.13
2023-05-20T10:49:47.506Z,24.85
2023-05-20T10:52:14.708Z,20.05
2023-05-20T10:54:45.736Z,24.90
2023-05-20T10:57:12.496Z,21.30
2023-05-20T10:59:39.326Z,23.58
2023-05-20T11:02:06.150Z,20.58
2023-05-20T11:04:33.033Z,20.80
2023-05-20T11:06:59.821Z,25.92
2023-05-20T11:09:26.556Z,27.88
2023-05-20T11:11:54.321Z,25.13
2023-05-20T11:14:22.004Z,21.20
2023-05-20T11:16:53.523Z,23.08
2023-05-20T11:19:20.921Z,23.70
2023-05-20T11:21:48.343Z,18.60
2023-05-20T11:24:24.466Z,22.10
2023-05-20T11:26:51.847Z,25.45
2023-05-20T11:29:19.981Z,20.65
2023-05-20T11:31:48.738Z,19.95
2023-05-20T11:34:15.658Z,20.20
2023-05-20T11:36:45.390Z,24.27
2023-05-20T11:39:13.553Z,21.33
2023-05-20T11:41:42.182Z,21.27
2023-05-20T11:44:13.116Z,20.20
2023-05-20T11:46:44.206Z,20.02
2023-05-20T11:49:13.449Z,19.95
2023-05-20T11:51:40.581Z,21.20
2023-05-20T11:54:13.779Z,20.38
2023-05-20T11:56:41.597Z,19.02
2023-05-20T11:59:09.827Z,20.67
2023-05-20T12:01:41.036Z,21.75
2023-05-20T12:04:08.992Z,22.27
2023-05-20T12:06:37.327Z,21.05
2023-05-20T12:09:07.110Z,23.27
2023-05-20T12:11:35.821Z,22.45
2023-05-20T12:14:05.637Z,23.13
2023-05-20T12:16:33.879Z,22.20
2023-05-20T12:19:00.991Z,21.90
2023-05-20T12:21:31.378Z,23.85
2023-05-20T12:24:01.209Z,22.75
2023-05-20T12:26:28.779Z,21.20
2023-05-20T12:28:56.033Z,22.75
2023-05-20T12:31:22.877Z,27.10
2023-05-20T12:33:51.312Z,21.15
2023-05-20T12:36:19.573Z,23.15
2023-05-20T12:38:46.829Z,22.58
2023-05-20T12:41:13.758Z,19.58
2023-05-20T12:43:40.511Z,23.77
2023-05-20T12:46:07.276Z,21.95
2023-05-20T12:48:34.028Z,24.67
2023-05-20T12:51:00.906Z,19.55
2023-05-20T12:53:27.639Z,22.85
2023-05-20T12:55:54.369Z,22.70
2023-05-20T12:58:21.125Z,25.73
2023-05-20T13:00:47.916Z,20.60
2023-05-20T13:03:15.019Z,24.25
2023-05-20T13:05:42.014Z,24.63
2023-05-20T13:08:10.133Z,20.15
2023-05-20T13:10:37.481Z,22.20
2023-05-20T13:13:04.569Z,22.08
2023-05-20T13:15:33.229Z,22.25
2023-05-20T13:18:01.486Z,23.23
2023-05-20T13:20:29.690Z,19.17
2023-05-20T13:22:56.446Z,21.95
2023-05-20T13:25:23.290Z,22.25
2023-05-20T13:27:50.078Z,21.45
2023-05-20T13:30:16.853Z,19.05
2023-05-20T13:32:43.670Z,27.42
2023-05-20T13:35:10.467Z,22.75
2023-05-20T13:37:37.261Z,21.20
2023-05-20T13:40:04.165Z,19.58
2023-05-20T13:42:31.324Z,19.15
2023-05-20T13:44:58.106Z,20.05
2023-05-20T13:47:24.951Z,22.90
2023-05-20T13:49:51.790Z,22.95
2023-05-20T13:52:18.488Z,20.48
2023-05-20T13:54:47.370Z,16.10
2023-05-20T13:57:14.805Z,20.35
2023-05-20T13:59:41.586Z,19.77
2023-05-20T14:02:08.530Z,22.50
2023-05-20T14:04:39.756Z,20.73
2023-05-20T14:07:09.377Z,20.25
2023-05-20T14:09:36.954Z,20.77
2023-05-20T14:12:04.488Z,20.88
2023-05-20T14:14:31.304Z,17.48
2023-05-20T14:16:58.169Z,20.75
2023-05-20T14:19:26.190Z,22.42
2023-05-20T14:21:53.035Z,22.60
2023-05-20T14:24:21.365Z,18.08
2023-05-20T14:26:49.641Z,21.67
2023-05-20T14:29:16.465Z,18.88
2023-05-20T14:31:43.248Z,20.73
2023-05-20T14:34:10.272Z,19.13
2023-05-20T14:36:37.464Z,20.90
2023-05-20T14:39:04.455Z,20.70
2023-05-20T14:41:31.222Z,24.85
2023-05-20T14:43:58.075Z,20.70
2023-05-20T14:46:24.915Z,25.23
2023-05-20T14:48:51.669Z,16.70
2023-05-20T14:51:18.418Z,20.83
2023-05-20T14:53:45.120Z,22.13
2023-05-20T14:56:11.891Z,21.75
2023-05-20T14:58:38.930Z,19.63
2023-05-20T15:01:05.738Z,21.02
2023-05-20T15:03:32.591Z,21.52
2023-05-20T15:05:59.407Z,21.63
2023-05-20T15:08:26.480Z,19.38
2023-05-20T15:10:53.187Z,20.48
2023-05-20T15:13:20.023Z,25.15
2023-05-20T15:15:46.786Z,17.48
2023-05-20T15:18:13.602Z,24.60
2023-05-20T15:20:40.709Z,21.48
2023-05-20T15:23:07.681Z,20.52
2023-05-20T15:25:34.791Z,21.45
2023-05-20T15:28:01.742Z,18.77
2023-05-20T15:30:28.458Z,22.17
2023-05-20T15:32:55.274Z,22.88
2023-05-20T15:35:22.085Z,20.10
2023-05-20T15:37:48.779Z,21.73
2023-05-20T15:40:16.673Z,18.55
2023-05-20T15:42:43.411Z,18.95
2023-05-20T15:45:10.504Z,21.85
2023-05-20T15:47:39.915Z,21.23
2023-05-20T15:50:08.581Z,22.42
2023-05-20T15:52:35.683Z,22.08
2023-05-20T15:55:02.890Z,21.15
2023-05-20T15:57:30.580Z,24.20
2023-05-20T15:59:57.554Z,24.50
2023-05-20T16:02:24.978Z,23.60
2023-05-20T16:04:52.315Z,26.02
2023-05-20T16:07:19.146Z,27.67
2023-05-20T16:09:46.072Z,21.17
2023-05-20T16:12:13.209Z,26.15
2023-05-20T16:14:40.042Z,26.70
2023-05-20T16:17:06.849Z,23.70
2023-05-20T16:19:33.731Z,31.50
2023-05-20T16:22:00.530Z,20.50
2023-05-20T16:24:27.288Z,23.42
2023-05-20T16:26:54.170Z,21.13
2023-05-20T16:29:20.932Z,22.77
2023-05-20T16:31:47.714Z,22.02
2023-05-20T16:34:14.882Z,21.30
2023-05-20T16:36:41.607Z,25.40
2023-05-20T16:39:08.421Z,20.65
2023-05-20T16:41:35.229Z,24.10
2023-05-20T16:44:01.854Z,22.50
2023-05-20T16:46:28.859Z,29.63
2023-05-20T16:48:55.647Z,17.75
2023-05-20T16:51:22.687Z,18.45
2023-05-20T16:53:49.390Z,20.80
2023-05-20T16:56:16.180Z,23.42
2023-05-20T16:58:42.947Z,24.40
2023-05-20T17:01:09.713Z,20.15
2023-05-20T17:03:36.389Z,21.48
2023-05-20T17:06:03.165Z,20.10
2023-05-20T17:08:29.875Z,20.35
2023-05-20T17:10:56.716Z,20.48
2023-05-20T17:13:23.300Z,21.02
2023-05-20T17:15:50.071Z,19.90
2023-05-20T17:18:16.711Z,20.85
2023-05-20T17:20:43.647Z,24.20
2023-05-20T17:23:10.616Z,22.30
2023-05-20T17:25:37.372Z,25.55
2023-05-20T17:28:04.226Z,20.80
2023-05-20T17:30:30.949Z,22.80
2023-05-20T17:32:57.942Z,20.73
2023-05-20T17:35:25.872Z,21.30
2023-05-20T17:37:53.469Z,23.75
2023-05-20T17:40:20.844Z,20.30
2023-05-20T17:42:50.944Z,19.17
2023-05-20T17:45:17.661Z,18.48
2023-05-20T17:47:44.390Z,22.20
2023-05-20T17:50:11.391Z,24.60
2023-05-20T17:52:38.202Z,23.42
2023-05-20T17:55:06.624Z,21.88
2023-05-20T17:57:33.616Z,21.88
2023-05-20T18:00:00.382Z,20.45
2023-05-20T18:02:27.202Z,24.10
2023-05-20T18:04:53.953Z,18.75
2023-05-20T18:07:21.123Z,21.05
2023-05-20T18:09:47.892Z,21.33
2023-05-20T18:12:14.617Z,19.52
2023-05-20T18:14:41.338Z,22.45
2023-05-20T18:17:08.066Z,23.45
2023-05-20T18:19:34.843Z,19.20
2023-05-20T18:22:02.572Z,23.58
2023-05-20T18:24:29.527Z,21.10
2023-05-20T18:26:56.272Z,20.17
2023-05-20T18:29:24.373Z,24.58
2023-05-20T18:31:51.252Z,20.30
2023-05-20T18:34:18.017Z,18.45
2023-05-20T18:36:44.992Z,26.75
2023-05-20T18:39:14.032Z,20.88
2023-05-20T18:44:12.515Z,23.58
2023-05-20T18:46:40.477Z,20.10
2023-05-20T18:49:07.237Z,22.83
2023-05-20T18:51:34.221Z,23.33
2023-05-20T18:54:01.022Z,20.75
2023-05-20T18:56:27.827Z,25.60
2023-05-20T18:58:54.560Z,21.83
2023-05-20T19:01:21.883Z,25.33
2023-05-20T19:03:48.678Z,26.27
2023-05-20T19:06:16.404Z,22.92
2023-05-20T19:08:43.628Z,26.58
2023-05-20T19:11:10.378Z,25.58
2023-05-20T19:13:37.142Z,27.30
2023-05-20T19:16:04.166Z,27.98
2023-05-20T19:18:30.864Z,25.35
2023-05-20T19:20:57.601Z,27.48
2023-05-20T19:23:24.308Z,28.10
2023-05-20T19:25:51.225Z,24.27
2023-05-20T19:28:18.133Z,28.42
2023-05-20T19:30:44.895Z,25.73
2023-05-20T19:33:11.806Z,30.52
2023-05-20T19:35:38.659Z,30.08
2023-05-20T19:38:05.882Z,29.25
2023-05-20T19:40:32.777Z,33.10
2023-05-20T19:42:59.607Z,27.55
2023-05-20T19:45:26.716Z,29.10
2023-05-20T19:47:53.541Z,28.17
2023-05-20T19:50:20.579Z,30.50
2023-05-20T19:52:47.249Z,27.95
2023-05-20T19:55:14.522Z,28.50
2023-05-20T19:57:41.829Z,28.88
2023-05-20T20:00:11.356Z,30.52
2023-05-20T20:02:41.688Z,32.80
2023-05-20T20:05:08.826Z,34.92
2023-05-20T20:07:35.652Z,35.83
2023-05-20T20:10:02.448Z,40.83
2023-05-20T20:12:29.310Z,31.00
2023-05-20T20:14:56.450Z,33.28
2023-05-20T20:17:23.941Z,37.75
2023-05-20T20:19:53.291Z,47.05
2023-05-20T20:22:24.086Z,36.70
2023-05-20T20:24:51.105Z,34.55
2023-05-20T20:27:19.302Z,35.25
2023-05-20T20:29:46.128Z,39.08
2023-05-20T20:32:13.059Z,36.53
2023-05-20T20:34:40.065Z,40.13
2023-05-20T20:37:06.878Z,36.65
2023-05-20T20:39:34.760Z,40.92
2023-05-20T20:42:02.915Z,40.25
2023-05-20T20:44:29.656Z,44.40
2023-05-20T20:46:57.611Z,37.63
2023-05-20T20:49:26.367Z,39.67
2023-05-20T20:51:54.439Z,42.20
2023-05-20T20:54:21.252Z,47.10
2023-05-20T20:56:48.408Z,43.30
2023-05-20T20:59:16.003Z,46.33
2023-05-20T21:01:44.552Z,44.10
2023-05-20T21:04:15.069Z,45.78
2023-05-20T21:06:49.050Z,44.20
2023-05-20T21:09:16.376Z,47.33
2023-05-20T21:11:58.271Z,42.20
2023-05-20T21:14:25.535Z,41.30
2023-05-20T21:16:58.989Z,42.45
2023-05-20T21:19:26.770Z,45.90
2023-05-20T21:21:53.658Z,44.10
2023-05-20T21:24:20.443Z,45.55
2023-05-20T21:26:47.362Z,42.80
2023-05-20T21:29:14.357Z,44.17
2023-05-20T21:31:41.347Z,46.83
2023-05-20T21:34:08.178Z,48.40
2023-05-20T21:36:35.206Z,51.47
2023-05-20T21:39:01.926Z,51.13
2023-05-20T21:41:28.731Z,42.97
2023-05-20T21:43:55.523Z,53.70
2023-05-20T21:46:22.503Z,47.92
2023-05-20T21:48:49.237Z,50.47
2023-05-20T21:51:16.092Z,49.30
2023-05-20T21:53:42.926Z,50.60
2023-05-20T21:56:09.693Z,46.67
2023-05-20T21:58:40.861Z,48.45
2023-05-20T22:01:09.835Z,55.47
2023-05-20T22:03:37.069Z,49.30
2023-05-20T22:06:05.049Z,50.42
2023-05-20T22:08:33.844Z,47.65
2023-05-20T22:11:05.317Z,50.65
2023-05-20T22:13:33.354Z,49.58
2023-05-20T22:16:01.614Z,52.90
2023-05-20T22:18:29.290Z,51.78
2023-05-20T22:20:59.152Z,52.25
2023-05-20T22:23:29.062Z,52.33
2023-05-20T22:25:56.345Z,53.17
2023-05-20T22:28:23.771Z,51.67
2023-05-20T22:30:51.353Z,50.92
2023-05-20T22:33:18.700Z,59.72
2023-05-20T22:35:45.607Z,52.78
2023-05-20T22:38:12.426Z,49.22
2023-05-20T22:40:39.396Z,55.15
2023-05-20T22:43:06.385Z,54.72
2023-05-20T22:45:33.343Z,55.42
2023-05-20T22:48:00.380Z,62.63
2023-05-20T22:50:27.667Z,50.72
2023-05-20T22:52:54.886Z,54.38
2023-05-20T22:55:23.283Z,58.60
2023-05-20T22:57:50.135Z,54.75
2023-05-20T23:00:18.213Z,56.97
2023-05-20T23:02:49.663Z,55.72
2023-05-20T23:05:17.322Z,59.95
2023-05-20T23:07:44.950Z,55.38
2023-05-20T23:10:12.092Z,50.55
2023-05-20T23:12:38.949Z,58.05
2023-05-20T23:15:06.671Z,50.55
2023-05-20T23:17:33.641Z,63.15
2023-05-20T23:20:00.516Z,57.50
2023-05-20T23:22:27.549Z,62.55
2023-05-20T23:24:54.340Z,57.80
2023-05-20T23:27:21.341Z,58.65
2023-05-20T23:29:48.066Z,56.85
2023-05-20T23:32:14.992Z,58.85
2023-05-20T23:34:43.898Z,53.78
2023-05-20T23:37:10.833Z,59.58
2023-05-20T23:39:37.775Z,51.50
2023-05-20T23:42:05.296Z,57.45
2023-05-20T23:44:32.084Z,51.38
2023-05-20T23:46:59.360Z,54.38
2023-05-20T23:49:27.227Z,58.05
2023-05-20T23:51:54.398Z,56.88
2023-05-20T23:54:21.539Z,59.92
2023-05-20T23:56:48.846Z,61.53
2023-05-20T23:59:15.677Z,51.65
